sensor_id;sensor_type;location;lat;lon;timestamp;P1;durP1;ratioP1;P2;durP2;ratioP2
25263;SDS011;13211;51.796;5.808;2023-08-06T00:01:19;11.38;;;3.55;;
25263;SDS011;13211;51.796;5.808;2023-08-06T00:03:49;9.82;;;3.55;;
25263;SDS011;13211;51.796;5.808;2023-08-06T00:06:16;6.40;;;3.13;;
25263;SDS011;13211;51.796;5.808;2023-08-06T00:08:44;6.00;;;3.25;;
25263;SDS011;13211;51.796;5.808;2023-08-06T00:11:11;9.68;;;3.33;;
25263;SDS011;13211;51.796;5.808;2023-08-06T00:13:39;10.65;;;4.10;;
25263;SDS011;13211;51.796;5.808;2023-08-06T00:16:10;8.50;;;3.60;;
25263;SDS011;13211;51.796;5.808;2023-08-06T00:18:38;5.95;;;3.00;;
25263;SDS011;13211;51.796;5.808;2023-08-06T00:21:06;4.60;;;3.28;;
25263;SDS011;13211;51.796;5.808;2023-08-06T00:23:34;6.43;;;3.50;;
25263;SDS011;13211;51.796;5.808;2023-08-06T00:26:01;8.98;;;3.20;;
25263;SDS011;13211;51.796;5.808;2023-08-06T00:28:29;6.78;;;3.72;;
25263;SDS011;13211;51.796;5.808;2023-08-06T00:30:57;7.10;;;3.45;;
25263;SDS011;13211;51.796;5.808;2023-08-06T00:33:27;5.22;;;3.55;;
25263;SDS011;13211;51.796;5.808;2023-08-06T00:35:56;7.80;;;3.40;;
25263;SDS011;13211;51.796;5.808;2023-08-06T00:38:23;6.60;;;3.10;;
25263;SDS011;13211;51.796;5.808;2023-08-06T00:40:51;6.05;;;3.70;;
25263;SDS011;13211;51.796;5.808;2023-08-06T00:43:19;5.68;;;3.00;;
25263;SDS011;13211;51.796;5.808;2023-08-06T00:45:47;5.95;;;3.30;;
25263;SDS011;13211;51.796;5.808;2023-08-06T00:48:15;7.60;;;3.30;;
25263;SDS011;13211;51.796;5.808;2023-08-06T00:50:44;6.72;;;3.30;;
25263;SDS011;13211;51.796;5.808;2023-08-06T00:53:11;5.15;;;2.90;;
25263;SDS011;13211;51.796;5.808;2023-08-06T00:55:40;6.80;;;3.15;;
25263;SDS011;13211;51.796;5.808;2023-08-06T00:58:09;7.97;;;3.42;;
25263;SDS011;13211;51.796;5.808;2023-08-06T01:00:36;5.50;;;3.20;;
25263;SDS011;13211;51.796;5.808;2023-08-06T01:03:04;6.75;;;3.50;;
25263;SDS011;13211;51.796;5.808;2023-08-06T01:05:32;5.72;;;3.53;;
25263;SDS011;13211;51.796;5.808;2023-08-06T01:13:45;5.93;;;3.65;;
25263;SDS011;13211;51.796;5.808;2023-08-06T01:16:15;9.10;;;3.35;;
25263;SDS011;13211;51.796;5.808;2023-08-06T01:18:43;6.68;;;3.83;;
25263;SDS011;13211;51.796;5.808;2023-08-06T01:21:13;8.68;;;4.07;;
25263;SDS011;13211;51.796;5.808;2023-08-06T01:23:43;6.43;;;3.30;;
25263;SDS011;13211;51.796;5.808;2023-08-06T01:31:24;6.93;;;3.78;;
25263;SDS011;13211;51.796;5.808;2023-08-06T01:33:53;7.07;;;3.45;;
25263;SDS011;13211;51.796;5.808;2023-08-06T01:36:23;5.97;;;3.17;;
25263;SDS011;13211;51.796;5.808;2023-08-06T01:38:51;6.20;;;3.50;;
25263;SDS011;13211;51.796;5.808;2023-08-06T01:41:20;8.02;;;3.42;;
25263;SDS011;13211;51.796;5.808;2023-08-06T01:43:47;7.18;;;3.42;;
25263;SDS011;13211;51.796;5.808;2023-08-06T01:46:15;8.13;;;4.55;;
25263;SDS011;13211;51.796;5.808;2023-08-06T01:48:44;4.75;;;3.47;;
25263;SDS011;13211;51.796;5.808;2023-08-06T01:51:11;4.47;;;3.42;;
25263;SDS011;13211;51.796;5.808;2023-08-06T01:53:39;3.88;;;3.10;;
25263;SDS011;13211;51.796;5.808;2023-08-06T01:56:07;6.80;;;3.40;;
25263;SDS011;13211;51.796;5.808;2023-08-06T01:58:35;7.05;;;3.65;;
25263;SDS011;13211;51.796;5.808;2023-08-06T02:01:02;7.22;;;3.85;;
25263;SDS011;13211;51.796;5.808;2023-08-06T02:03:30;6.93;;;4.10;;
25263;SDS011;13211;51.796;5.808;2023-08-06T02:05:58;6.05;;;4.05;;
25263;SDS011;13211;51.796;5.808;2023-08-06T02:08:27;5.80;;;3.58;;
25263;SDS011;13211;51.796;5.808;2023-08-06T02:10:54;6.18;;;3.78;;
25263;SDS011;13211;51.796;5.808;2023-08-06T02:13:22;5.20;;;3.50;;
25263;SDS011;13211;51.796;5.808;2023-08-06T02:15:50;7.47;;;3.80;;
25263;SDS011;13211;51.796;5.808;2023-08-06T02:18:17;5.53;;;3.60;;
25263;SDS011;13211;51.796;5.808;2023-08-06T02:20:54;6.40;;;3.53;;
25263;SDS011;13211;51.796;5.808;2023-08-06T02:23:23;5.03;;;3.55;;
25263;SDS011;13211;51.796;5.808;2023-08-06T02:26:01;6.60;;;3.78;;
25263;SDS011;13211;51.796;5.808;2023-08-06T02:28:30;9.07;;;3.75;;
25263;SDS011;13211;51.796;5.808;2023-08-06T02:30:58;5.60;;;3.83;;
25263;SDS011;13211;51.796;5.808;2023-08-06T02:33:25;6.00;;;3.70;;
25263;SDS011;13211;51.796;5.808;2023-08-06T02:36:03;6.57;;;3.80;;
25263;SDS011;13211;51.796;5.808;2023-08-06T02:38:31;6.18;;;3.78;;
25263;SDS011;13211;51.796;5.808;2023-08-06T02:41:01;11.10;;;4.05;;
25263;SDS011;13211;51.796;5.808;2023-08-06T02:43:30;5.90;;;3.97;;
25263;SDS011;13211;51.796;5.808;2023-08-06T02:45:58;7.07;;;4.30;;
25263;SDS011;13211;51.796;5.808;2023-08-06T02:48:26;8.60;;;4.07;;
25263;SDS011;13211;51.796;5.808;2023-08-06T02:50:56;6.03;;;3.90;;
25263;SDS011;13211;51.796;5.808;2023-08-06T02:53:25;6.65;;;4.10;;
25263;SDS011;13211;51.796;5.808;2023-08-06T02:55:54;6.40;;;3.90;;
25263;SDS011;13211;51.796;5.808;2023-08-06T02:58:29;10.57;;;4.40;;
25263;SDS011;13211;51.796;5.808;2023-08-06T03:01:07;5.72;;;4.05;;
25263;SDS011;13211;51.796;5.808;2023-08-06T03:03:43;8.65;;;4.63;;
25263;SDS011;13211;51.796;5.808;2023-08-06T03:06:18;6.85;;;4.45;;
25263;SDS011;13211;51.796;5.808;2023-08-06T03:08:49;6.18;;;4.30;;
25263;SDS011;13211;51.796;5.808;2023-08-06T03:11:16;8.38;;;4.65;;
25263;SDS011;13211;51.796;5.808;2023-08-06T03:13:45;8.93;;;5.07;;
25263;SDS011;13211;51.796;5.808;2023-08-06T03:16:12;6.72;;;4.28;;
25263;SDS011;13211;51.796;5.808;2023-08-06T03:18:41;11.68;;;4.50;;
25263;SDS011;13211;51.796;5.808;2023-08-06T03:21:09;8.07;;;4.97;;
25263;SDS011;13211;51.796;5.808;2023-08-06T03:23:37;10.27;;;4.55;;
25263;SDS011;13211;51.796;5.808;2023-08-06T03:26:06;7.28;;;4.70;;
25263;SDS011;13211;51.796;5.808;2023-08-06T03:28:33;10.95;;;5.47;;
25263;SDS011;13211;51.796;5.808;2023-08-06T03:31:01;9.52;;;5.22;;
25263;SDS011;13211;51.796;5.808;2023-08-06T03:33:36;12.05;;;4.97;;
25263;SDS011;13211;51.796;5.808;2023-08-06T03:36:08;7.28;;;4.80;;
25263;SDS011;13211;51.796;5.808;2023-08-06T03:38:36;11.20;;;5.13;;
25263;SDS011;13211;51.796;5.808;2023-08-06T03:41:06;10.13;;;5.03;;
25263;SDS011;13211;51.796;5.808;2023-08-06T03:43:34;10.30;;;5.28;;
25263;SDS011;13211;51.796;5.808;2023-08-06T03:46:05;7.20;;;5.35;;
25263;SDS011;13211;51.796;5.808;2023-08-06T03:48:33;8.15;;;5.05;;
25263;SDS011;13211;51.796;5.808;2023-08-06T03:51:00;9.32;;;4.90;;
25263;SDS011;13211;51.796;5.808;2023-08-06T03:53:28;8.35;;;5.68;;
25263;SDS011;13211;51.796;5.808;2023-08-06T03:55:58;11.68;;;5.90;;
25263;SDS011;13211;51.796;5.808;2023-08-06T03:58:29;9.38;;;6.00;;
25263;SDS011;13211;51.796;5.808;2023-08-06T04:01:00;8.48;;;5.70;;
25263;SDS011;13211;51.796;5.808;2023-08-06T04:03:33;10.75;;;6.70;;
25263;SDS011;13211;51.796;5.808;2023-08-06T04:06:04;10.77;;;7.65;;
25263;SDS011;13211;51.796;5.808;2023-08-06T04:08:32;16.70;;;7.93;;
25263;SDS011;13211;51.796;5.808;2023-08-06T04:10:59;10.30;;;7.65;;
25263;SDS011;13211;51.796;5.808;2023-08-06T04:13:27;13.10;;;8.23;;
25263;SDS011;13211;51.796;5.808;2023-08-06T04:16:00;12.93;;;8.23;;
25263;SDS011;13211;51.796;5.808;2023-08-06T04:18:28;15.38;;;9.25;;
25263;SDS011;13211;51.796;5.808;2023-08-06T04:20:56;13.82;;;8.38;;
25263;SDS011;13211;51.796;5.808;2023-08-06T04:23:24;12.18;;;8.73;;
25263;SDS011;13211;51.796;5.808;2023-08-06T04:30:26;14.95;;;9.70;;
25263;SDS011;13211;51.796;5.808;2023-08-06T04:32:56;16.25;;;11.43;;
25263;SDS011;13211;51.796;5.808;2023-08-06T04:35:27;15.45;;;11.30;;
25263;SDS011;13211;51.796;5.808;2023-08-06T04:37:55;17.85;;;11.30;;
25263;SDS011;13211;51.796;5.808;2023-08-06T04:40:23;22.85;;;11.80;;
25263;SDS011;13211;51.796;5.808;2023-08-06T04:42:51;17.65;;;12.20;;
25263;SDS011;13211;51.796;5.808;2023-08-06T04:45:19;17.05;;;12.23;;
25263;SDS011;13211;51.796;5.808;2023-08-06T04:47:46;17.90;;;12.70;;
25263;SDS011;13211;51.796;5.808;2023-08-06T04:50:14;18.05;;;12.77;;
25263;SDS011;13211;51.796;5.808;2023-08-06T04:52:42;17.92;;;13.13;;
25263;SDS011;13211;51.796;5.808;2023-08-06T04:55:12;18.08;;;12.85;;
25263;SDS011;13211;51.796;5.808;2023-08-06T04:57:40;20.15;;;13.38;;
25263;SDS011;13211;51.796;5.808;2023-08-06T05:00:10;21.13;;;14.18;;
25263;SDS011;13211;51.796;5.808;2023-08-06T05:02:38;23.75;;;15.02;;
25263;SDS011;13211;51.796;5.808;2023-08-06T05:05:06;25.95;;;15.27;;
25263;SDS011;13211;51.796;5.808;2023-08-06T05:07:34;22.23;;;15.35;;
25263;SDS011;13211;51.796;5.808;2023-08-06T05:10:02;25.90;;;16.08;;
25263;SDS011;13211;51.796;5.808;2023-08-06T05:12:31;26.23;;;15.55;;
25263;SDS011;13211;51.796;5.808;2023-08-06T05:14:58;23.33;;;15.82;;
25263;SDS011;13211;51.796;5.808;2023-08-06T05:17:26;24.63;;;17.40;;
25263;SDS011;13211;51.796;5.808;2023-08-06T05:19:54;27.17;;;18.20;;
25263;SDS011;13211;51.796;5.808;2023-08-06T05:22:21;32.03;;;18.10;;
25263;SDS011;13211;51.796;5.808;2023-08-06T05:24:49;30.25;;;18.88;;
25263;SDS011;13211;51.796;5.808;2023-08-06T05:27:16;30.05;;;19.33;;
25263;SDS011;13211;51.796;5.808;2023-08-06T05:29:47;29.52;;;18.02;;
25263;SDS011;13211;51.796;5.808;2023-08-06T05:32:23;30.23;;;18.27;;
25263;SDS011;13211;51.796;5.808;2023-08-06T05:34:51;26.40;;;17.73;;
25263;SDS011;13211;51.796;5.808;2023-08-06T05:37:18;29.90;;;18.40;;
25263;SDS011;13211;51.796;5.808;2023-08-06T05:39:45;33.30;;;20.00;;
25263;SDS011;13211;51.796;5.808;2023-08-06T05:42:13;31.13;;;19.10;;
25263;SDS011;13211;51.796;5.808;2023-08-06T05:44:41;34.97;;;20.45;;
25263;SDS011;13211;51.796;5.808;2023-08-06T05:47:09;29.67;;;20.90;;
25263;SDS011;13211;51.796;5.808;2023-08-06T05:49:36;30.88;;;20.17;;
25263;SDS011;13211;51.796;5.808;2023-08-06T05:52:04;31.95;;;19.90;;
25263;SDS011;13211;51.796;5.808;2023-08-06T05:54:32;30.80;;;20.30;;
25263;SDS011;13211;51.796;5.808;2023-08-06T05:57:00;30.70;;;20.02;;
25263;SDS011;13211;51.796;5.808;2023-08-06T05:59:28;31.48;;;19.95;;
25263;SDS011;13211;51.796;5.808;2023-08-06T06:01:55;30.08;;;19.98;;
25263;SDS011;13211;51.796;5.808;2023-08-06T06:04:23;29.80;;;18.92;;
25263;SDS011;13211;51.796;5.808;2023-08-06T06:06:51;26.20;;;18.08;;
25263;SDS011;13211;51.796;5.808;2023-08-06T06:09:18;25.65;;;18.38;;
25263;SDS011;13211;51.796;5.808;2023-08-06T06:11:46;27.52;;;18.50;;
25263;SDS011;13211;51.796;5.808;2023-08-06T06:14:16;26.33;;;18.13;;
25263;SDS011;13211;51.796;5.808;2023-08-06T06:16:44;26.52;;;18.90;;
25263;SDS011;13211;51.796;5.808;2023-08-06T06:19:11;26.13;;;17.95;;
25263;SDS011;13211;51.796;5.808;2023-08-06T06:21:39;25.35;;;18.27;;
25263;SDS011;13211;51.796;5.808;2023-08-06T06:24:08;24.75;;;17.70;;
25263;SDS011;13211;51.796;5.808;2023-08-06T06:26:37;22.63;;;15.98;;
25263;SDS011;13211;51.796;5.808;2023-08-06T06:29:05;20.85;;;15.60;;
25263;SDS011;13211;51.796;5.808;2023-08-06T06:31:33;22.30;;;15.90;;
25263;SDS011;13211;51.796;5.808;2023-08-06T06:34:01;26.55;;;15.27;;
25263;SDS011;13211;51.796;5.808;2023-08-06T06:36:29;20.25;;;14.75;;
25263;SDS011;13211;51.796;5.808;2023-08-06T06:38:57;20.30;;;14.75;;
25263;SDS011;13211;51.796;5.808;2023-08-06T06:41:24;26.50;;;15.13;;
25263;SDS011;13211;51.796;5.808;2023-08-06T06:43:59;20.90;;;14.27;;
25263;SDS011;13211;51.796;5.808;2023-08-06T06:46:27;20.10;;;13.43;;
25263;SDS011;13211;51.796;5.808;2023-08-06T06:48:57;21.77;;;14.02;;
25263;SDS011;13211;51.796;5.808;2023-08-06T06:51:26;21.33;;;14.02;;
25263;SDS011;13211;51.796;5.808;2023-08-06T06:53:53;18.88;;;13.32;;
25263;SDS011;13211;51.796;5.808;2023-08-06T06:56:21;18.75;;;13.15;;
25263;SDS011;13211;51.796;5.808;2023-08-06T06:58:48;17.65;;;12.30;;
25263;SDS011;13211;51.796;5.808;2023-08-06T07:01:16;17.48;;;12.00;;
25263;SDS011;13211;51.796;5.808;2023-08-06T07:03:44;19.88;;;13.55;;
25263;SDS011;13211;51.796;5.808;2023-08-06T07:06:11;20.02;;;13.40;;
25263;SDS011;13211;51.796;5.808;2023-08-06T07:08:40;19.02;;;13.95;;
25263;SDS011;13211;51.796;5.808;2023-08-06T07:11:07;18.13;;;13.25;;
25263;SDS011;13211;51.796;5.808;2023-08-06T07:13:35;20.35;;;13.48;;
25263;SDS011;13211;51.796;5.808;2023-08-06T07:16:03;18.27;;;13.60;;
25263;SDS011;13211;51.796;5.808;2023-08-06T07:18:30;20.58;;;14.73;;
25263;SDS011;13211;51.796;5.808;2023-08-06T07:20:58;19.35;;;15.40;;
25263;SDS011;13211;51.796;5.808;2023-08-06T07:23:26;22.63;;;16.30;;
25263;SDS011;13211;51.796;5.808;2023-08-06T07:25:54;23.95;;;15.60;;
25263;SDS011;13211;51.796;5.808;2023-08-06T07:28:21;20.75;;;15.63;;
25263;SDS011;13211;51.796;5.808;2023-08-06T07:30:49;24.15;;;15.85;;
25263;SDS011;13211;51.796;5.808;2023-08-06T07:33:18;25.88;;;16.77;;
25263;SDS011;13211;51.796;5.808;2023-08-06T07:35:45;24.00;;;16.17;;
25263;SDS011;13211;51.796;5.808;2023-08-06T07:38:13;23.65;;;17.20;;
25263;SDS011;13211;51.796;5.808;2023-08-06T07:40:41;18.40;;;15.43;;
25263;SDS011;13211;51.796;5.808;2023-08-06T07:43:09;22.48;;;16.38;;
25263;SDS011;13211;51.796;5.808;2023-08-06T07:45:36;21.40;;;16.77;;
25263;SDS011;13211;51.796;5.808;2023-08-06T07:48:04;22.95;;;16.58;;
25263;SDS011;13211;51.796;5.808;2023-08-06T07:50:32;22.60;;;16.35;;
25263;SDS011;13211;51.796;5.808;2023-08-06T07:53:00;23.88;;;16.05;;
25263;SDS011;13211;51.796;5.808;2023-08-06T07:55:27;19.23;;;14.25;;
25263;SDS011;13211;51.796;5.808;2023-08-06T07:57:55;18.88;;;12.60;;
25263;SDS011;13211;51.796;5.808;2023-08-06T08:00:22;15.63;;;11.75;;
25263;SDS011;13211;51.796;5.808;2023-08-06T08:02:50;15.85;;;10.93;;
25263;SDS011;13211;51.796;5.808;2023-08-06T08:05:18;12.77;;;10.18;;
25263;SDS011;13211;51.796;5.808;2023-08-06T08:07:46;11.65;;;9.35;;
25263;SDS011;13211;51.796;5.808;2023-08-06T08:10:14;12.00;;;9.32;;
25263;SDS011;13211;51.796;5.808;2023-08-06T08:12:42;13.63;;;9.15;;
25263;SDS011;13211;51.796;5.808;2023-08-06T08:15:10;14.52;;;8.65;;
25263;SDS011;13211;51.796;5.808;2023-08-06T08:17:37;10.57;;;8.70;;
25263;SDS011;13211;51.796;5.808;2023-08-06T08:20:05;12.13;;;9.10;;
25263;SDS011;13211;51.796;5.808;2023-08-06T08:22:33;15.52;;;10.02;;
25263;SDS011;13211;51.796;5.808;2023-08-06T08:25:01;13.57;;;9.07;;
25263;SDS011;13211;51.796;5.808;2023-08-06T08:27:29;14.82;;;10.75;;
25263;SDS011;13211;51.796;5.808;2023-08-06T08:29:57;13.60;;;10.07;;
25263;SDS011;13211;51.796;5.808;2023-08-06T08:32:25;20.33;;;11.35;;
25263;SDS011;13211;51.796;5.808;2023-08-06T08:34:52;16.40;;;11.85;;
25263;SDS011;13211;51.796;5.808;2023-08-06T08:37:21;20.05;;;13.10;;
25263;SDS011;13211;51.796;5.808;2023-08-06T08:39:49;18.15;;;13.77;;
25263;SDS011;13211;51.796;5.808;2023-08-06T08:42:16;23.75;;;15.18;;
25263;SDS011;13211;51.796;5.808;2023-08-06T08:44:44;24.48;;;15.25;;
25263;SDS011;13211;51.796;5.808;2023-08-06T08:47:12;19.02;;;14.27;;
25263;SDS011;13211;51.796;5.808;2023-08-06T08:49:42;21.63;;;14.38;;
25263;SDS011;13211;51.796;5.808;2023-08-06T08:52:10;22.13;;;14.25;;
25263;SDS011;13211;51.796;5.808;2023-08-06T08:54:39;22.02;;;13.90;;
25263;SDS011;13211;51.796;5.808;2023-08-06T08:57:07;26.70;;;13.82;;
25263;SDS011;13211;51.796;5.808;2023-08-06T08:59:35;23.05;;;14.23;;
25263;SDS011;13211;51.796;5.808;2023-08-06T09:02:03;20.65;;;13.73;;
25263;SDS011;13211;51.796;5.808;2023-08-06T09:04:31;14.27;;;6.78;;
25263;SDS011;13211;51.796;5.808;2023-08-06T09:07:01;4.93;;;2.80;;
25263;SDS011;13211;51.796;5.808;2023-08-06T09:09:30;3.92;;;2.50;;
25263;SDS011;13211;51.796;5.808;2023-08-06T09:12:03;3.73;;;2.27;;
25263;SDS011;13211;51.796;5.808;2023-08-06T09:14:33;2.00;;;1.30;;
25263;SDS011;13211;51.796;5.808;2023-08-06T09:17:01;9.98;;;1.35;;
25263;SDS011;13211;51.796;5.808;2023-08-06T09:19:28;2.30;;;1.00;;
25263;SDS011;13211;51.796;5.808;2023-08-06T09:21:57;1.73;;;0.90;;
25263;SDS011;13211;51.796;5.808;2023-08-06T09:24:25;4.20;;;0.85;;
25263;SDS011;13211;51.796;5.808;2023-08-06T09:26:53;1.27;;;1.08;;
25263;SDS011;13211;51.796;5.808;2023-08-06T09:29:20;1.77;;;0.90;;
25263;SDS011;13211;51.796;5.808;2023-08-06T09:31:49;2.97;;;1.00;;
25263;SDS011;13211;51.796;5.808;2023-08-06T09:34:21;2.28;;;1.20;;
25263;SDS011;13211;51.796;5.808;2023-08-06T09:36:50;1.55;;;1.10;;
25263;SDS011;13211;51.796;5.808;2023-08-06T09:39:19;3.17;;;1.30;;
25263;SDS011;13211;51.796;5.808;2023-08-06T09:41:47;1.85;;;1.30;;
25263;SDS011;13211;51.796;5.808;2023-08-06T09:44:18;2.70;;;1.50;;
25263;SDS011;13211;51.796;5.808;2023-08-06T09:46:56;6.40;;;1.77;;
25263;SDS011;13211;51.796;5.808;2023-08-06T09:49:28;3.75;;;1.67;;
25263;SDS011;13211;51.796;5.808;2023-08-06T09:51:55;3.33;;;1.90;;
25263;SDS011;13211;51.796;5.808;2023-08-06T09:54:28;4.93;;;2.05;;
25263;SDS011;13211;51.796;5.808;2023-08-06T09:56:56;5.05;;;2.30;;
25263;SDS011;13211;51.796;5.808;2023-08-06T09:59:24;4.28;;;1.98;;
25263;SDS011;13211;51.796;5.808;2023-08-06T10:01:53;3.85;;;2.30;;
25263;SDS011;13211;51.796;5.808;2023-08-06T10:04:24;3.10;;;2.08;;
25263;SDS011;13211;51.796;5.808;2023-08-06T10:07:00;3.28;;;2.30;;
25263;SDS011;13211;51.796;5.808;2023-08-06T10:09:28;3.20;;;2.33;;
25263;SDS011;13211;51.796;5.808;2023-08-06T10:11:56;3.00;;;2.60;;
25263;SDS011;13211;51.796;5.808;2023-08-06T10:14:28;4.15;;;2.70;;
25263;SDS011;13211;51.796;5.808;2023-08-06T10:16:57;4.72;;;2.85;;
25263;SDS011;13211;51.796;5.808;2023-08-06T10:19:26;4.93;;;3.05;;
25263;SDS011;13211;51.796;5.808;2023-08-06T10:24:47;5.75;;;3.22;;
25263;SDS011;13211;51.796;5.808;2023-08-06T10:27:19;5.18;;;3.38;;
25263;SDS011;13211;51.796;5.808;2023-08-06T10:29:48;7.97;;;3.63;;
25263;SDS011;13211;51.796;5.808;2023-08-06T10:32:20;5.43;;;3.92;;
25263;SDS011;13211;51.796;5.808;2023-08-06T10:37:35;6.22;;;4.10;;
25263;SDS011;13211;51.796;5.808;2023-08-06T10:40:06;6.43;;;4.10;;
25263;SDS011;13211;51.796;5.808;2023-08-06T10:42:34;5.70;;;4.05;;
25263;SDS011;13211;51.796;5.808;2023-08-06T10:45:12;10.90;;;4.20;;
25263;SDS011;13211;51.796;5.808;2023-08-06T10:47:41;5.85;;;4.10;;
25263;SDS011;13211;51.796;5.808;2023-08-06T10:50:13;8.52;;;4.20;;
25263;SDS011;13211;51.796;5.808;2023-08-06T10:52:44;6.88;;;4.47;;
25263;SDS011;13211;51.796;5.808;2023-08-06T10:55:11;5.85;;;3.88;;
25263;SDS011;13211;51.796;5.808;2023-08-06T10:57:39;5.68;;;4.13;;
25263;SDS011;13211;51.796;5.808;2023-08-06T11:00:07;7.50;;;4.60;;
25263;SDS011;13211;51.796;5.808;2023-08-06T11:02:42;8.27;;;5.15;;
25263;SDS011;13211;51.796;5.808;2023-08-06T11:05:13;8.63;;;4.43;;
25263;SDS011;13211;51.796;5.808;2023-08-06T11:07:41;7.28;;;4.32;;
25263;SDS011;13211;51.796;5.808;2023-08-06T11:10:10;7.15;;;4.80;;
25263;SDS011;13211;51.796;5.808;2023-08-06T11:12:39;9.00;;;4.57;;
25263;SDS011;13211;51.796;5.808;2023-08-06T11:15:07;8.85;;;4.47;;
25263;SDS011;13211;51.796;5.808;2023-08-06T11:17:35;6.03;;;4.60;;
25263;SDS011;13211;51.796;5.808;2023-08-06T11:20:03;7.38;;;4.60;;
25263;SDS011;13211;51.796;5.808;2023-08-06T11:22:31;7.22;;;4.78;;
25263;SDS011;13211;51.796;5.808;2023-08-06T11:24:59;9.40;;;4.35;;
25263;SDS011;13211;51.796;5.808;2023-08-06T11:29:57;10.20;;;5.22;;
25263;SDS011;13211;51.796;5.808;2023-08-06T11:32:26;9.73;;;4.93;;
25263;SDS011;13211;51.796;5.808;2023-08-06T11:34:55;6.80;;;4.47;;
25263;SDS011;13211;51.796;5.808;2023-08-06T11:37:23;11.50;;;5.07;;
25263;SDS011;13211;51.796;5.808;2023-08-06T11:39:52;10.05;;;4.47;;
25263;SDS011;13211;51.796;5.808;2023-08-06T11:42:19;10.25;;;4.63;;
25263;SDS011;13211;51.796;5.808;2023-08-06T11:44:47;13.10;;;5.57;;
25263;SDS011;13211;51.796;5.808;2023-08-06T11:47:16;10.55;;;4.43;;
25263;SDS011;13211;51.796;5.808;2023-08-06T11:49:45;9.68;;;4.50;;
25263;SDS011;13211;51.796;5.808;2023-08-06T11:52:20;8.00;;;4.05;;
25263;SDS011;13211;51.796;5.808;2023-08-06T11:55:00;13.20;;;4.35;;
25263;SDS011;13211;51.796;5.808;2023-08-06T11:57:37;9.68;;;4.50;;
25263;SDS011;13211;51.796;5.808;2023-08-06T12:02:44;5.00;;;3.22;;
25263;SDS011;13211;51.796;5.808;2023-08-06T12:05:16;6.63;;;3.65;;
25263;SDS011;13211;51.796;5.808;2023-08-06T12:07:45;8.20;;;3.70;;
25263;SDS011;13211;51.796;5.808;2023-08-06T12:10:13;8.27;;;3.72;;
25263;SDS011;13211;51.796;5.808;2023-08-06T12:12:41;8.85;;;3.70;;
25263;SDS011;13211;51.796;5.808;2023-08-06T12:15:09;5.10;;;3.30;;
25263;SDS011;13211;51.796;5.808;2023-08-06T12:17:36;8.55;;;3.63;;
25263;SDS011;13211;51.796;5.808;2023-08-06T12:20:05;7.07;;;4.10;;
25263;SDS011;13211;51.796;5.808;2023-08-06T12:22:33;5.78;;;3.50;;
25263;SDS011;13211;51.796;5.808;2023-08-06T12:25:02;7.60;;;4.15;;
25263;SDS011;13211;51.796;5.808;2023-08-06T12:27:33;11.57;;;4.10;;
25263;SDS011;13211;51.796;5.808;2023-08-06T12:30:01;9.50;;;3.70;;
25263;SDS011;13211;51.796;5.808;2023-08-06T12:32:30;6.78;;;3.90;;
25263;SDS011;13211;51.796;5.808;2023-08-06T12:34:58;7.95;;;4.00;;
25263;SDS011;13211;51.796;5.808;2023-08-06T12:37:27;11.35;;;4.20;;
25263;SDS011;13211;51.796;5.808;2023-08-06T12:39:54;8.27;;;3.78;;
25263;SDS011;13211;51.796;5.808;2023-08-06T12:42:22;8.25;;;3.60;;
25263;SDS011;13211;51.796;5.808;2023-08-06T12:44:51;8.38;;;4.05;;
25263;SDS011;13211;51.796;5.808;2023-08-06T12:47:18;10.70;;;5.05;;
25263;SDS011;13211;51.796;5.808;2023-08-06T12:49:46;7.15;;;3.67;;
25263;SDS011;13211;51.796;5.808;2023-08-06T12:52:14;8.85;;;3.50;;
25263;SDS011;13211;51.796;5.808;2023-08-06T12:54:44;7.63;;;3.42;;
25263;SDS011;13211;51.796;5.808;2023-08-06T12:57:12;10.10;;;3.65;;
25263;SDS011;13211;51.796;5.808;2023-08-06T12:59:40;5.65;;;3.03;;
25263;SDS011;13211;51.796;5.808;2023-08-06T13:02:08;6.50;;;2.85;;
25263;SDS011;13211;51.796;5.808;2023-08-06T13:04:35;9.00;;;2.92;;
25263;SDS011;13211;51.796;5.808;2023-08-06T13:07:03;7.28;;;3.20;;
25263;SDS011;13211;51.796;5.808;2023-08-06T13:09:32;8.20;;;3.00;;
25263;SDS011;13211;51.796;5.808;2023-08-06T13:12:03;5.32;;;2.60;;
25263;SDS011;13211;51.796;5.808;2023-08-06T13:14:32;7.35;;;2.88;;
25263;SDS011;13211;51.796;5.808;2023-08-06T13:17:00;5.47;;;2.63;;
25263;SDS011;13211;51.796;5.808;2023-08-06T13:19:28;4.38;;;2.67;;
25263;SDS011;13211;51.796;5.808;2023-08-06T13:22:00;4.95;;;2.45;;
25263;SDS011;13211;51.796;5.808;2023-08-06T13:24:28;4.97;;;2.72;;
25263;SDS011;13211;51.796;5.808;2023-08-06T13:26:57;4.95;;;2.40;;
25263;SDS011;13211;51.796;5.808;2023-08-06T13:29:25;8.75;;;2.78;;
25263;SDS011;13211;51.796;5.808;2023-08-06T13:31:53;4.88;;;2.83;;
25263;SDS011;13211;51.796;5.808;2023-08-06T13:34:21;5.55;;;2.50;;
25263;SDS011;13211;51.796;5.808;2023-08-06T13:36:48;6.65;;;2.65;;
25263;SDS011;13211;51.796;5.808;2023-08-06T13:39:16;5.57;;;2.20;;
25263;SDS011;13211;51.796;5.808;2023-08-06T13:41:45;10.40;;;2.30;;
25263;SDS011;13211;51.796;5.808;2023-08-06T13:44:12;7.68;;;2.10;;
25263;SDS011;13211;51.796;5.808;2023-08-06T13:46:41;5.60;;;1.88;;
25263;SDS011;13211;51.796;5.808;2023-08-06T13:49:09;5.53;;;2.08;;
25263;SDS011;13211;51.796;5.808;2023-08-06T13:51:36;5.68;;;2.08;;
25263;SDS011;13211;51.796;5.808;2023-08-06T13:54:05;7.88;;;1.55;;
25263;SDS011;13211;51.796;5.808;2023-08-06T13:56:33;8.10;;;2.08;;
25263;SDS011;13211;51.796;5.808;2023-08-06T13:59:01;6.63;;;1.73;;
25263;SDS011;13211;51.796;5.808;2023-08-06T14:01:30;3.88;;;1.65;;
25263;SDS011;13211;51.796;5.808;2023-08-06T14:04:15;4.43;;;2.08;;
25263;SDS011;13211;51.796;5.808;2023-08-06T14:06:42;3.30;;;1.40;;
25263;SDS011;13211;51.796;5.808;2023-08-06T14:09:11;3.00;;;1.65;;
25263;SDS011;13211;51.796;5.808;2023-08-06T14:11:41;5.30;;;1.58;;
25263;SDS011;13211;51.796;5.808;2023-08-06T14:14:08;5.75;;;1.60;;
25263;SDS011;13211;51.796;5.808;2023-08-06T14:16:36;4.82;;;1.30;;
25263;SDS011;13211;51.796;5.808;2023-08-06T14:19:04;4.20;;;1.70;;
25263;SDS011;13211;51.796;5.808;2023-08-06T14:21:31;5.10;;;1.50;;
25263;SDS011;13211;51.796;5.808;2023-08-06T14:23:59;3.83;;;1.73;;
25263;SDS011;13211;51.796;5.808;2023-08-06T14:26:26;3.03;;;1.75;;
25263;SDS011;13211;51.796;5.808;2023-08-06T14:28:54;4.47;;;1.98;;
25263;SDS011;13211;51.796;5.808;2023-08-06T14:31:21;5.05;;;1.80;;
25263;SDS011;13211;51.796;5.808;2023-08-06T14:33:49;3.60;;;1.67;;
25263;SDS011;13211;51.796;5.808;2023-08-06T14:36:16;5.28;;;1.73;;
25263;SDS011;13211;51.796;5.808;2023-08-06T14:38:44;6.20;;;1.88;;
25263;SDS011;13211;51.796;5.808;2023-08-06T14:41:25;2.95;;;1.52;;
25263;SDS011;13211;51.796;5.808;2023-08-06T14:43:53;3.50;;;1.83;;
25263;SDS011;13211;51.796;5.808;2023-08-06T14:46:21;3.53;;;1.60;;
25263;SDS011;13211;51.796;5.808;2023-08-06T14:48:49;2.70;;;1.58;;
25263;SDS011;13211;51.796;5.808;2023-08-06T14:51:16;3.90;;;1.83;;
25263;SDS011;13211;51.796;5.808;2023-08-06T14:53:47;4.72;;;1.75;;
25263;SDS011;13211;51.796;5.808;2023-08-06T14:56:15;3.55;;;1.73;;
25263;SDS011;13211;51.796;5.808;2023-08-06T14:58:42;6.00;;;1.67;;
25263;SDS011;13211;51.796;5.808;2023-08-06T15:01:10;5.60;;;1.95;;
25263;SDS011;13211;51.796;5.808;2023-08-06T15:03:37;4.97;;;2.05;;
25263;SDS011;13211;51.796;5.808;2023-08-06T15:06:05;4.22;;;2.15;;
25263;SDS011;13211;51.796;5.808;2023-08-06T15:08:32;7.22;;;2.45;;
25263;SDS011;13211;51.796;5.808;2023-08-06T15:11:00;5.70;;;2.50;;
25263;SDS011;13211;51.796;5.808;2023-08-06T15:13:31;5.90;;;2.55;;